Time;durP1;ratioP1;P1;durP2;ratioP2;P2;SDS_P1;SDS_P2;PMS_P1;PMS_P2;Temp;Humidity;BMP_temperature;BMP_pressure;BME280_temperature;BME280_humidity;BME280_pressure;Samples;Min_cycle;Max_cycle;Signal;HPM_P1;HPM_P2
2024/01/16 00:01:14;;;;;;;8.87;2.57;;;0.20;99.90;;;;;;5038064;28;20452;-76
2024/01/16 00:03:40;;;;;;;11.87;2.33;;;0.20;99.90;;;;;;5036759;28;20053;-76
2024/01/16 00:06:06;;;;;;;6.40;2.10;;;0.20;99.90;;;;;;5034339;28;20041;-76
2024/01/16 00:08:32;;;;;;;15.47;2.73;;;0.20;99.90;;;;;;5036401;28;20048;-76
2024/01/16 00:10:58;;;;;;;7.47;2.30;;;0.20;99.90;;;;;;5035803;28;20049;-75
2024/01/16 00:13:23;;;;;;;9.07;2.73;;;0.20;99.90;;;;;;5036938;28;20049;-76
2024/01/16 00:15:49;;;;;;;8.93;2.73;;;0.10;99.90;;;;;;5035607;28;20063;-77
2024/01/16 00:18:15;;;;;;;7.23;2.40;;;0.10;99.90;;;;;;5034153;28;20049;-77
2024/01/16 00:20:41;;;;;;;10.83;2.97;;;0.00;99.90;;;;;;5038269;28;20044;-77
2024/01/16 00:23:06;;;;;;;7.67;2.20;;;0.00;99.90;;;;;;5018951;28;20049;-76
2024/01/16 00:25:32;;;;;;;7.73;2.50;;;-0.10;99.90;;;;;;5032843;28;20056;-77
2024/01/16 00:27:58;;;;;;;8.53;2.70;;;-0.10;99.90;;;;;;5036914;28;20049;-76
2024/01/16 00:30:23;;;;;;;7.33;2.40;;;-0.10;99.90;;;;;;5016441;28;20670;-76
2024/01/16 00:32:49;;;;;;;10.30;2.43;;;-0.10;99.90;;;;;;5035437;28;20049;-76
2024/01/16 00:35:15;;;;;;;13.77;2.77;;;-0.20;99.90;;;;;;5034454;28;20038;-76
2024/01/16 00:37:41;;;;;;;8.63;2.60;;;-0.20;99.90;;;;;;5036644;28;20049;-76
2024/01/16 00:40:08;;;;;;;8.23;2.30;;;-0.20;99.90;;;;;;5036208;28;20061;-77
2024/01/16 00:42:34;;;;;;;10.93;2.70;;;-0.20;99.90;;;;;;5033623;28;20044;-76
2024/01/16 00:45:00;;;;;;;10.93;2.20;;;-0.20;99.90;;;;;;5040133;28;20057;-77
2024/01/16 00:47:26;;;;;;;13.53;2.73;;;-0.10;99.90;;;;;;5034584;28;20068;-77
2024/01/16 00:49:52;;;;;;;9.03;2.60;;;-0.10;99.90;;;;;;5036943;28;20428;-77
2024/01/16 00:52:18;;;;;;;8.87;2.83;;;-0.10;99.90;;;;;;5035136;28;20037;-77
2024/01/16 00:54:44;;;;;;;9.17;2.47;;;0.00;99.90;;;;;;5035614;28;20041;-76
2024/01/16 00:57:09;;;;;;;8.23;2.57;;;-0.10;99.90;;;;;;5029112;28;20563;-76
2024/01/16 00:59:36;;;;;;;5.87;2.40;;;-0.10;99.90;;;;;;5032668;28;20100;-75
2024/01/16 01:02:03;;;;;;;8.20;2.53;;;-0.10;99.90;;;;;;5037473;28;20042;-76
2024/01/16 01:04:29;;;;;;;9.13;2.30;;;-0.10;99.90;;;;;;5033157;28;20037;-76
2024/01/16 01:06:55;;;;;;;11.93;2.40;;;0.00;99.90;;;;;;5036099;28;20045;-75
2024/01/16 01:09:20;;;;;;;11.27;2.30;;;0.00;99.90;;;;;;5033870;28;20068;-77
2024/01/16 01:11:46;;;;;;;12.40;2.30;;;0.00;99.90;;;;;;5035741;28;20075;-77
2024/01/16 01:14:12;;;;;;;12.00;2.53;;;0.00;99.90;;;;;;5036562;28;20045;-77
2024/01/16 01:16:37;;;;;;;6.90;2.30;;;0.00;99.90;;;;;;5036102;28;20065;-77
2024/01/16 01:19:03;;;;;;;7.27;2.20;;;0.10;99.90;;;;;;5036887;28;20145;-77
2024/01/16 01:21:29;;;;;;;11.20;2.27;;;0.10;99.90;;;;;;5016364;28;20053;-77
2024/01/16 01:23:55;;;;;;;8.27;2.00;;;0.20;99.90;;;;;;5032192;28;20072;-77
2024/01/16 01:26:21;;;;;;;10.03;2.33;;;0.20;99.90;;;;;;5032754;28;20133;-77
2024/01/16 01:28:46;;;;;;;6.20;2.17;;;0.20;99.90;;;;;;5038879;28;20172;-77
2024/01/16 01:31:12;;;;;;;7.40;1.83;;;0.10;99.90;;;;;;5033947;28;20037;-77
2024/01/16 01:33:42;;;;;;;9.07;2.00;;;0.10;99.90;;;;;;5038293;28;20049;-77
2024/01/16 01:36:08;;;;;;;9.37;2.40;;;0.10;99.90;;;;;;5035320;28;20428;-77
2024/01/16 01:38:34;;;;;;;13.37;2.70;;;0.10;99.90;;;;;;5029156;28;20053;-77
2024/01/16 01:40:59;;;;;;;7.23;2.20;;;0.00;99.90;;;;;;5033987;28;20232;-77
2024/01/16 01:43:25;;;;;;;7.07;1.80;;;0.00;99.90;;;;;;5036762;28;20123;-76
2024/01/16 01:46:10;;;;;;;7.90;1.93;;;-0.10;99.90;;;;;;5035489;28;20057;-76
2024/01/16 01:48:37;;;;;;;5.63;1.67;;;-0.10;99.90;;;;;;5038114;28;20677;-76
2024/01/16 01:51:03;;;;;;;10.17;1.80;;;-0.20;99.90;;;;;;5033166;28;20388;-76
2024/01/16 01:53:33;;;;;;;6.30;1.70;;;-0.20;99.90;;;;;;5017796;28;20052;-77
2024/01/16 01:56:02;;;;;;;8.47;1.90;;;-0.30;99.90;;;;;;5033475;28;20049;-76
2024/01/16 01:58:29;;;;;;;8.93;1.60;;;-0.30;99.90;;;;;;5031893;28;20049;-76
2024/01/16 02:00:55;;;;;;;5.87;1.80;;;-0.40;99.90;;;;;;5032504;28;20048;-75
2024/01/16 02:03:23;;;;;;;5.33;1.90;;;-0.40;99.90;;;;;;5031927;28;20633;-76
2024/01/16 02:05:49;;;;;;;5.90;1.60;;;-0.40;99.90;;;;;;5035366;28;20050;-76
2024/01/16 02:08:15;;;;;;;4.67;1.70;;;-0.40;99.90;;;;;;5033989;28;20080;-75
2024/01/16 02:10:45;;;;;;;6.67;1.67;;;-0.40;99.90;;;;;;5033905;28;20124;-76
2024/01/16 02:13:11;;;;;;;7.87;1.63;;;-0.40;99.90;;;;;;5031769;28;20575;-77
2024/01/16 02:15:41;;;;;;;5.90;1.67;;;-0.40;99.90;;;;;;5035183;28;20411;-76
2024/01/16 02:18:07;;;;;;;4.30;1.77;;;-0.40;99.90;;;;;;5034696;28;20094;-76
2024/01/16 02:20:33;;;;;;;6.07;1.93;;;-0.40;99.90;;;;;;5031982;28;20049;-76
2024/01/16 02:23:03;;;;;;;6.30;1.50;;;-0.40;99.90;;;;;;5032776;28;20064;-76
2024/01/16 02:25:29;;;;;;;6.53;1.60;;;-0.40;99.90;;;;;;5036596;28;20045;-76
2024/01/16 02:27:55;;;;;;;4.90;1.43;;;-0.40;99.90;;;;;;5032431;28;20174;-75
2024/01/16 02:30:20;;;;;;;5.67;1.30;;;-0.30;99.90;;;;;;5034195;28;20053;-77
2024/01/16 02:32:46;;;;;;;8.93;1.70;;;-0.30;99.90;;;;;;5030574;28;20059;-77
2024/01/16 02:35:12;;;;;;;5.70;1.40;;;-0.30;99.90;;;;;;5034211;28;20112;-77
2024/01/16 02:37:37;;;;;;;4.53;1.20;;;-0.20;99.90;;;;;;5034862;28;20532;-76
2024/01/16 02:40:05;;;;;;;6.57;1.70;;;-0.20;99.90;;;;;;5032975;28;20041;-76
2024/01/16 02:42:32;;;;;;;8.37;1.70;;;-0.10;99.90;;;;;;5032645;28;20052;-76
2024/01/16 02:44:58;;;;;;;7.37;1.77;;;-0.10;99.90;;;;;;5033382;28;20056;-76
2024/01/16 02:47:24;;;;;;;6.03;1.47;;;0.00;99.90;;;;;;5034680;28;20065;-77
2024/01/16 02:49:50;;;;;;;3.83;1.13;;;0.00;99.90;;;;;;5030147;28;20049;-76
2024/01/16 02:52:15;;;;;;;7.27;1.30;;;-0.10;99.90;;;;;;5032489;28;20180;-76
2024/01/16 02:54:41;;;;;;;8.03;1.50;;;-0.10;99.90;;;;;;5036115;28;20060;-77
2024/01/16 02:57:07;;;;;;;4.97;1.23;;;-0.10;99.90;;;;;;5036941;28;20057;-76
2024/01/16 02:59:33;;;;;;;4.67;1.50;;;-0.10;99.90;;;;;;5011216;28;20444;-76
2024/01/16 03:01:58;;;;;;;7.80;1.70;;;-0.10;99.90;;;;;;5032495;28;20081;-76
2024/01/16 03:04:24;;;;;;;5.23;1.13;;;-0.10;99.90;;;;;;5032575;28;20041;-76
2024/01/16 03:06:50;;;;;;;5.33;1.77;;;-0.10;99.90;;;;;;5048244;28;20172;-76
2024/01/16 03:09:15;;;;;;;4.27;1.73;;;-0.10;99.90;;;;;;5014557;28;20037;-76
2024/01/16 03:11:41;;;;;;;4.77;1.77;;;-0.10;99.90;;;;;;5031537;28;20056;-76
2024/01/16 03:14:07;;;;;;;6.87;1.70;;;-0.10;99.90;;;;;;5032517;28;20033;-77
2024/01/16 03:16:33;;;;;;;7.73;1.67;;;-0.20;99.90;;;;;;5031210;28;20079;-76
2024/01/16 03:18:58;;;;;;;9.17;1.57;;;-0.20;99.90;;;;;;5029964;28;20064;-77
2024/01/16 03:21:24;;;;;;;3.97;1.37;;;-0.30;99.90;;;;;;5031714;28;20610;-76
2024/01/16 03:23:50;;;;;;;7.23;1.47;;;-0.30;99.90;;;;;;5035765;28;20052;-76
2024/01/16 03:26:16;;;;;;;6.47;1.43;;;-0.40;99.90;;;;;;5034307;28;20048;-76
2024/01/16 03:28:42;;;;;;;8.70;1.93;;;-0.50;99.90;;;;;;5037160;28;20124;-75
2024/01/16 03:31:08;;;;;;;8.40;1.80;;;-0.50;99.90;;;;;;5039389;28;20440;-76
2024/01/16 03:33:34;;;;;;;3.67;2.10;;;-0.50;99.90;;;;;;5038301;28;20352;-76
2024/01/16 03:36:00;;;;;;;5.43;1.60;;;-0.50;99.90;;;;;;5036045;28;20038;-76
2024/01/16 03:38:26;;;;;;;5.73;1.40;;;-0.50;99.90;;;;;;5037179;28;20060;-76
2024/01/16 03:40:52;;;;;;;6.03;1.63;;;-0.50;99.90;;;;;;5039951;28;20042;-76
2024/01/16 03:43:18;;;;;;;9.53;1.60;;;-0.50;99.90;;;;;;5039322;28;20049;-76
2024/01/16 03:45:44;;;;;;;6.03;1.40;;;-0.50;99.90;;;;;;5033147;28;20060;-76
2024/01/16 03:48:10;;;;;;;5.40;1.37;;;-0.50;99.90;;;;;;5036683;28;20058;-77
2024/01/16 03:50:36;;;;;;;7.40;1.63;;;-0.60;99.90;;;;;;5033349;28;20073;-77
2024/01/16 03:53:03;;;;;;;5.33;1.40;;;-0.60;99.90;;;;;;5037906;28;20056;-76
2024/01/16 03:55:31;;;;;;;6.93;1.43;;;-0.60;99.90;;;;;;5036092;28;20073;-76
2024/01/16 03:57:56;;;;;;;8.20;1.57;;;-0.60;99.90;;;;;;5033441;28;20048;-76
2024/01/16 04:00:22;;;;;;;4.40;1.40;;;-0.60;99.90;;;;;;5035433;28;20038;-77
2024/01/16 04:02:48;;;;;;;11.27;2.20;;;-0.70;99.90;;;;;;5035268;28;20071;-77
2024/01/16 04:05:13;;;;;;;5.80;1.40;;;-0.60;99.90;;;;;;5039136;28;20252;-76
2024/01/16 04:07:39;;;;;;;3.73;1.57;;;-0.60;99.90;;;;;;5013260;28;20104;-77
2024/01/16 04:10:07;;;;;;;5.47;1.33;;;-0.60;99.90;;;;;;5033671;28;20053;-76
2024/01/16 04:12:32;;;;;;;5.27;1.50;;;-0.60;99.90;;;;;;5036757;28;20037;-77
2024/01/16 04:14:58;;;;;;;5.67;1.70;;;-0.60;99.90;;;;;;5018558;28;20560;-76
2024/01/16 04:17:24;;;;;;;4.47;1.40;;;-0.60;99.90;;;;;;5034909;28;20077;-76
2024/01/16 04:19:49;;;;;;;7.30;2.07;;;-0.60;99.90;;;;;;5033495;28;20498;-75
2024/01/16 04:22:15;;;;;;;7.07;1.70;;;-0.60;99.90;;;;;;5016924;28;20392;-75
2024/01/16 04:24:41;;;;;;;5.23;2.00;;;-0.60;99.90;;;;;;5035990;28;20041;-77
2024/01/16 04:27:06;;;;;;;6.27;1.50;;;-0.60;99.90;;;;;;5034717;28;20050;-76
2024/01/16 04:29:32;;;;;;;7.57;1.93;;;-0.60;99.90;;;;;;5036345;28;20029;-76
2024/01/16 04:31:58;;;;;;;6.47;1.70;;;-0.50;99.90;;;;;;5033565;28;20176;-76
2024/01/16 04:34:24;;;;;;;4.73;1.60;;;-0.50;99.90;;;;;;5032217;28;20085;-76
2024/01/16 04:36:49;;;;;;;5.17;1.43;;;-0.50;99.90;;;;;;5034172;28;20072;-76
2024/01/16 04:39:15;;;;;;;6.73;1.53;;;-0.40;99.90;;;;;;5033400;28;20046;-76
2024/01/16 04:41:41;;;;;;;6.23;1.60;;;-0.40;99.90;;;;;;5017186;28;20124;-76
2024/01/16 04:44:06;;;;;;;6.87;1.83;;;-0.40;99.90;;;;;;5034952;28;20044;-75
2024/01/16 04:46:32;;;;;;;8.93;1.80;;;-0.40;99.90;;;;;;4994270;28;1113546;-77
2024/01/16 04:48:58;;;;;;;7.20;1.73;;;-0.30;99.90;;;;;;5033989;28;20056;-76
2024/01/16 04:51:24;;;;;;;6.90;1.60;;;-0.30;99.90;;;;;;5036733;28;20057;-77
2024/01/16 04:53:50;;;;;;;9.40;1.83;;;-0.30;99.90;;;;;;5033613;28;20132;-76
2024/01/16 04:56:15;;;;;;;9.03;2.17;;;-0.30;99.90;;;;;;5037850;28;20109;-76
2024/01/16 04:58:41;;;;;;;7.77;2.00;;;-0.30;99.90;;;;;;5032409;28;20041;-76
2024/01/16 05:01:07;;;;;;;8.77;1.93;;;-0.30;99.90;;;;;;5037284;28;20099;-76
2024/01/16 05:03:33;;;;;;;7.57;1.70;;;-0.30;99.90;;;;;;5038476;28;20037;-76
2024/01/16 05:05:59;;;;;;;4.57;1.30;;;-0.30;99.90;;;;;;5033048;28;20065;-76
2024/01/16 05:08:25;;;;;;;5.90;1.80;;;-0.30;99.90;;;;;;5036825;28;20151;-76
2024/01/16 05:10:50;;;;;;;7.30;1.77;;;-0.30;99.90;;;;;;5032765;28;20056;-76
2024/01/16 05:13:16;;;;;;;5.27;1.50;;;-0.30;99.90;;;;;;4999834;28;20105;-82
2024/01/16 05:15:42;;;;;;;7.13;1.60;;;-0.30;99.90;;;;;;5033971;28;20056;-76
2024/01/16 05:18:07;;;;;;;8.10;2.40;;;-0.20;99.90;;;;;;5036069;28;20041;-76
2024/01/16 05:20:34;;;;;;;7.83;1.93;;;-0.30;99.90;;;;;;5034937;28;20492;-75
2024/01/16 05:23:00;;;;;;;7.77;1.63;;;-0.20;99.90;;;;;;5035077;28;20048;-75
2024/01/16 05:25:26;;;;;;;6.70;2.10;;;-0.30;99.90;;;;;;5030030;28;20053;-76
2024/01/16 05:27:51;;;;;;;4.87;1.80;;;-0.30;99.90;;;;;;5038083;28;20038;-75
2024/01/16 05:30:17;;;;;;;7.40;2.00;;;-0.30;99.90;;;;;;5016035;28;20428;-76
2024/01/16 05:32:43;;;;;;;7.63;1.67;;;-0.30;99.90;;;;;;5030527;28;20059;-75
2024/01/16 05:35:09;;;;;;;7.50;2.00;;;-0.30;99.90;;;;;;5034263;28;20049;-75
2024/01/16 05:37:35;;;;;;;6.90;1.73;;;-0.30;99.90;;;;;;5036389;28;20036;-75
2024/01/16 05:40:03;;;;;;;9.13;2.40;;;-0.30;99.90;;;;;;5034502;28;20115;-75
2024/01/16 05:42:29;;;;;;;6.20;1.77;;;-0.20;99.90;;;;;;5036737;28;20068;-76
2024/01/16 05:44:55;;;;;;;8.87;2.07;;;-0.30;99.90;;;;;;5038425;28;20053;-76
2024/01/16 05:47:24;;;;;;;7.70;1.90;;;-0.20;99.90;;;;;;5033753;28;20525;-75
2024/01/16 05:49:49;;;;;;;7.30;1.80;;;-0.20;99.90;;;;;;5032211;28;20057;-76
2024/01/16 05:52:15;;;;;;;9.20;2.10;;;-0.20;99.90;;;;;;5033042;28;20049;-76
2024/01/16 05:54:41;;;;;;;6.30;1.93;;;-0.20;99.90;;;;;;5033875;28;20053;-76
2024/01/16 05:57:06;;;;;;;7.77;2.00;;;-0.20;99.90;;;;;;5019033;28;20147;-76
2024/01/16 05:59:32;;;;;;;7.73;1.67;;;-0.20;99.90;;;;;;5035215;28;20128;-75
2024/01/16 06:01:58;;;;;;;8.60;2.43;;;-0.10;99.90;;;;;;5033155;28;20132;-75
2024/01/16 06:04:23;;;;;;;8.30;1.67;;;-0.10;99.90;;;;;;5032417;28;20045;-76
2024/01/16 06:06:49;;;;;;;9.20;1.83;;;-0.10;99.90;;;;;;5018983;28;20444;-75
2024/01/16 06:09:15;;;;;;;10.47;1.60;;;-0.10;99.90;;;;;;5033614;28;20037;-74
2024/01/16 06:11:40;;;;;;;7.80;2.43;;;-0.20;99.90;;;;;;5035141;28;20033;-79
2024/01/16 06:14:07;;;;;;;8.80;2.00;;;-0.20;99.90;;;;;;5016801;28;20046;-76
2024/01/16 06:16:33;;;;;;;6.80;2.30;;;-0.10;99.90;;;;;;5030468;28;20041;-75
2024/01/16 06:18:58;;;;;;;6.57;1.83;;;-0.10;99.90;;;;;;5037135;28;20041;-76
2024/01/16 06:21:24;;;;;;;7.07;1.40;;;-0.10;99.90;;;;;;5029859;28;20076;-76
2024/01/16 06:23:50;;;;;;;6.73;1.60;;;-0.10;99.90;;;;;;5032983;28;20480;-76
2024/01/16 06:26:15;;;;;;;6.20;1.73;;;-0.10;99.90;;;;;;5031073;28;20075;-76
2024/01/16 06:28:44;;;;;;;5.77;1.63;;;-0.10;99.90;;;;;;5032115;28;20045;-76
2024/01/16 06:31:11;;;;;;;6.67;1.60;;;-0.10;99.90;;;;;;5032668;28;20795;-76
2024/01/16 06:33:37;;;;;;;7.50;2.00;;;-0.10;99.90;;;;;;5029935;28;20065;-75
2024/01/16 06:36:06;;;;;;;9.53;2.00;;;0.00;99.90;;;;;;5035738;28;20053;-75
2024/01/16 06:38:32;;;;;;;6.07;1.97;;;0.00;99.90;;;;;;5033472;28;20666;-76
2024/01/16 06:40:58;;;;;;;6.73;2.10;;;0.00;99.90;;;;;;5033566;28;20045;-76
2024/01/16 06:43:24;;;;;;;7.60;1.80;;;0.00;99.90;;;;;;5016846;28;20091;-76
2024/01/16 06:45:50;;;;;;;9.17;1.97;;;0.00;99.90;;;;;;5033138;28;20049;-75
2024/01/16 06:48:15;;;;;;;7.53;1.80;;;0.10;99.90;;;;;;5034993;28;20080;-76
2024/01/16 06:50:42;;;;;;;9.13;2.13;;;0.00;99.90;;;;;;5030816;28;20528;-77
2024/01/16 06:53:07;;;;;;;6.67;1.73;;;0.10;99.90;;;;;;5030832;28;20068;-77
2024/01/16 06:55:33;;;;;;;6.03;2.00;;;0.10;99.90;;;;;;5009719;28;20107;-75
2024/01/16 06:57:59;;;;;;;6.50;2.30;;;0.10;99.90;;;;;;5029916;28;20049;-77
2024/01/16 07:00:26;;;;;;;7.10;2.30;;;0.10;99.90;;;;;;5031383;28;20049;-77
2024/01/16 07:02:54;;;;;;;8.40;2.00;;;0.10;99.90;;;;;;5034502;28;20822;-77
2024/01/16 07:05:20;;;;;;;6.60;2.10;;;0.10;99.90;;;;;;5031518;28;20037;-77
2024/01/16 07:07:46;;;;;;;5.87;2.20;;;0.10;99.90;;;;;;5031856;28;20042;-77
2024/01/16 07:10:17;;;;;;;6.27;2.67;;;0.10;99.90;;;;;;5033635;28;20046;-76
2024/01/16 07:12:44;;;;;;;6.70;2.25;;;0.10;99.90;;;;;;5031793;28;20097;-76
2024/01/16 07:15:10;;;;;;;7.17;2.30;;;0.10;99.90;;;;;;5035758;28;20127;-78
2024/01/16 07:17:35;;;;;;;8.43;2.93;;;0.10;99.90;;;;;;5033118;28;20058;-77
2024/01/16 07:20:02;;;;;;;8.73;2.43;;;0.10;99.90;;;;;;5035305;28;20049;-73
2024/01/16 07:22:27;;;;;;;6.93;2.50;;;0.10;99.90;;;;;;5036820;28;20045;-77
2024/01/16 07:24:53;;;;;;;8.27;2.57;;;0.20;99.90;;;;;;5029698;28;20072;-77
2024/01/16 07:27:19;;;;;;;6.40;2.47;;;0.20;99.90;;;;;;5016600;28;20136;-77
2024/01/16 07:29:45;;;;;;;7.90;3.00;;;0.20;99.90;;;;;;5029787;28;20045;-77
2024/01/16 07:32:11;;;;;;;9.73;2.90;;;0.20;99.90;;;;;;5035037;28;20049;-76
2024/01/16 07:34:36;;;;;;;8.70;3.43;;;0.20;99.90;;;;;;5039186;28;20548;-76
2024/01/16 07:37:02;;;;;;;8.10;3.13;;;0.20;99.90;;;;;;5045572;28;20051;-76
2024/01/16 07:39:28;;;;;;;11.07;3.10;;;0.30;99.90;;;;;;5043461;28;20058;-77
2024/01/16 07:41:54;;;;;;;11.43;3.53;;;0.20;99.90;;;;;;5044758;28;20525;-76
2024/01/16 07:44:19;;;;;;;9.53;3.13;;;0.20;99.90;;;;;;5037193;28;20033;-76
2024/01/16 07:46:45;;;;;;;11.23;3.40;;;0.20;99.90;;;;;;5039891;28;20161;-77
2024/01/16 07:49:11;;;;;;;8.43;3.30;;;0.20;99.90;;;;;;5037076;28;20057;-76
2024/01/16 07:51:36;;;;;;;10.87;4.17;;;0.20;99.90;;;;;;5042933;28;20045;-76
2024/01/16 07:54:10;;;;;;;12.53;3.80;;;0.20;99.90;;;;;;5027640;28;20045;-77
2024/01/16 07:56:36;;;;;;;9.67;4.10;;;0.20;99.90;;;;;;5042595;28;20055;-76
2024/01/16 07:59:02;;;;;;;9.07;3.90;;;0.20;99.90;;;;;;5025898;28;20049;-76
2024/01/16 08:01:28;;;;;;;7.30;3.97;;;0.10;99.90;;;;;;5049909;28;20113;-75
2024/01/16 08:03:55;;;;;;;10.83;3.97;;;0.10;99.90;;;;;;5032721;28;20100;-77
2024/01/16 08:06:21;;;;;;;8.87;4.40;;;0.20;99.90;;;;;;5042411;28;20072;-76
2024/01/16 08:08:48;;;;;;;8.83;4.80;;;0.20;99.90;;;;;;5044343;28;20060;-76
2024/01/16 08:11:14;;;;;;;12.47;5.23;;;0.10;99.90;;;;;;5043895;28;20045;-77
2024/01/16 08:13:40;;;;;;;8.73;5.07;;;0.20;99.90;;;;;;5050224;28;20548;-76
2024/01/16 08:16:06;;;;;;;14.67;6.47;;;0.20;99.90;;;;;;5043948;28;20036;-76
2024/01/16 08:18:31;;;;;;;13.03;6.23;;;0.20;99.90;;;;;;5040747;28;20038;-77
2024/01/16 08:20:57;;;;;;;11.57;5.87;;;0.20;99.90;;;;;;5045802;28;20047;-76
2024/01/16 08:23:23;;;;;;;10.13;5.73;;;0.30;99.90;;;;;;5041783;28;20511;-76
2024/01/16 08:25:51;;;;;;;12.37;6.27;;;0.40;99.90;;;;;;5036480;28;20049;-76
2024/01/16 08:28:17;;;;;;;11.53;5.70;;;0.40;99.90;;;;;;5041748;28;20048;-75
2024/01/16 08:30:43;;;;;;;14.30;6.67;;;0.40;99.90;;;;;;5043249;28;20547;-75
2024/01/16 08:33:10;;;;;;;14.37;7.17;;;0.50;99.90;;;;;;5039453;28;20045;-75
2024/01/16 08:35:36;;;;;;;12.57;6.40;;;0.50;99.90;;;;;;5044219;28;20135;-75
2024/01/16 08:38:01;;;;;;;11.53;6.37;;;0.50;99.90;;;;;;5040591;28;20041;-75
2024/01/16 08:40:27;;;;;;;16.53;6.27;;;0.60;99.90;;;;;;5034569;28;20045;-76
2024/01/16 08:42:54;;;;;;;10.13;6.07;;;0.70;99.90;;;;;;5036465;28;20037;-72
2024/01/16 08:45:23;;;;;;;11.67;6.37;;;0.70;99.90;;;;;;5033293;28;20103;-76
2024/01/16 08:47:49;;;;;;;12.10;6.17;;;0.70;99.90;;;;;;5037547;28;20058;-76
2024/01/16 08:50:16;;;;;;;12.57;5.90;;;0.80;99.90;;;;;;5020678;28;20057;-76
2024/01/16 08:52:41;;;;;;;10.43;6.57;;;0.80;99.90;;;;;;5039594;28;20045;-76
2024/01/16 08:55:09;;;;;;;10.67;5.93;;;0.80;99.90;;;;;;5036804;28;20046;-76
2024/01/16 08:57:35;;;;;;;9.97;6.10;;;0.90;99.90;;;;;;5034890;28;20046;-75
2024/01/16 09:00:00;;;;;;;10.23;5.77;;;1.00;99.90;;;;;;5024620;28;20081;-75
2024/01/16 09:02:28;;;;;;;11.90;5.70;;;1.10;99.90;;;;;;5038197;28;20084;-76
2024/01/16 09:04:55;;;;;;;11.60;5.47;;;1.20;99.90;;;;;;5036184;28;20053;-75
2024/01/16 09:07:21;;;;;;;10.33;6.53;;;1.30;99.90;;;;;;5032915;28;20100;-76
2024/01/16 09:09:46;;;;;;;9.13;5.53;;;1.30;99.90;;;;;;5037831;28;20131;-76
2024/01/16 09:12:12;;;;;;;7.93;5.30;;;1.20;99.90;;;;;;5036221;28;20045;-76
2024/01/16 09:14:38;;;;;;;9.63;5.93;;;1.20;99.90;;;;;;5035220;28;20078;-76
2024/01/16 09:17:03;;;;;;;10.33;5.57;;;1.20;99.90;;;;;;5039561;28;20528;-75
2024/01/16 09:19:29;;;;;;;10.80;5.70;;;1.20;99.90;;;;;;5042739;28;20081;-76
2024/01/16 09:21:56;;;;;;;9.60;5.60;;;1.20;99.90;;;;;;5043903;28;20045;-75
2024/01/16 09:24:21;;;;;;;8.47;5.60;;;1.20;99.90;;;;;;5040995;28;20575;-75
2024/01/16 09:26:47;;;;;;;6.83;5.23;;;1.20;99.90;;;;;;5034226;28;20056;-75
2024/01/16 09:29:14;;;;;;;9.40;5.00;;;1.10;99.90;;;;;;5039385;28;20041;-76
2024/01/16 09:31:40;;;;;;;11.97;5.47;;;1.20;99.90;;;;;;5046928;28;20076;-76
2024/01/16 09:34:06;;;;;;;8.63;4.60;;;1.30;99.90;;;;;;5039739;28;20045;-76
2024/01/16 09:36:34;;;;;;;10.80;4.73;;;1.30;99.90;;;;;;5031066;28;20045;-76
2024/01/16 09:39:02;;;;;;;8.70;4.53;;;1.30;99.90;;;;;;5043935;28;20034;-75
2024/01/16 09:41:28;;;;;;;9.30;4.57;;;1.40;99.90;;;;;;5050066;28;20041;-76
2024/01/16 09:43:54;;;;;;;9.80;4.27;;;1.40;99.90;;;;;;5034995;28;20056;-75
2024/01/16 09:46:24;;;;;;;8.23;4.40;;;1.50;99.90;;;;;;5045561;28;20049;-75
2024/01/16 09:48:52;;;;;;;11.60;4.77;;;1.50;99.90;;;;;;5053788;28;20060;-75
2024/01/16 09:51:18;;;;;;;7.07;5.17;;;1.50;99.90;;;;;;5041902;28;20052;-76
2024/01/16 09:53:44;;;;;;;5.67;4.23;;;1.50;99.90;;;;;;5028721;28;20049;-76
2024/01/16 09:56:20;;;;;;;7.03;4.77;;;1.60;99.90;;;;;;5045317;28;20068;-76
2024/01/16 09:58:48;;;;;;;7.43;4.80;;;1.60;99.90;;;;;;5033777;28;21255;-76
2024/01/16 10:01:15;;;;;;;9.33;5.50;;;1.60;99.90;;;;;;5038715;28;20583;-76
2024/01/16 10:03:45;;;;;;;7.80;5.33;;;1.60;99.90;;;;;;5033730;28;20693;-76
2024/01/16 10:06:11;;;;;;;9.00;5.30;;;1.70;99.90;;;;;;5043129;28;20351;-75
2024/01/16 10:08:38;;;;;;;8.23;5.80;;;1.70;99.90;;;;;;5045400;28;20508;-76
2024/01/16 10:11:04;;;;;;;9.07;6.00;;;1.60;99.90;;;;;;5043575;28;20056;-76
2024/01/16 10:13:29;;;;;;;9.80;6.30;;;1.70;99.90;;;;;;5050352;28;20045;-76
2024/01/16 10:15:55;;;;;;;11.00;6.50;;;1.60;99.90;;;;;;5043742;28;20115;-76
2024/01/16 10:18:26;;;;;;;12.43;7.20;;;1.60;99.90;;;;;;5031916;28;20029;-76
2024/01/16 10:20:53;;;;;;;11.27;7.55;;;1.70;99.90;;;;;;5042619;28;20618;-76
2024/01/16 10:23:26;;;;;;;11.40;7.23;;;1.70;99.90;;;;;;5046087;28;20046;-76
2024/01/16 10:26:24;;;;;;;11.47;7.03;;;1.80;99.90;;;;;;5042654;28;20049;-76
2024/01/16 10:28:51;;;;;;;11.43;7.50;;;1.90;99.90;;;;;;5012762;28;20092;-74
2024/01/16 10:31:17;;;;;;;12.27;7.87;;;2.00;99.90;;;;;;5033075;28;20106;-76
2024/01/16 10:33:42;;;;;;;15.80;8.67;;;2.00;99.90;;;;;;5043997;28;20052;-76
2024/01/16 10:36:11;;;;;;;13.97;8.30;;;2.00;99.90;;;;;;5042160;28;20052;-76
2024/01/16 10:38:41;;;;;;;15.20;8.47;;;2.10;99.90;;;;;;5042132;28;20061;-76
2024/01/16 10:41:11;;;;;;;16.00;9.17;;;2.00;99.90;;;;;;5039831;28;20052;-76
2024/01/16 10:43:37;;;;;;;14.53;8.73;;;2.00;99.90;;;;;;5042310;28;20063;-76
2024/01/16 10:46:14;;;;;;;19.00;9.63;;;2.00;99.90;;;;;;5021241;28;20064;-76
2024/01/16 10:48:43;;;;;;;18.70;9.93;;;2.00;99.90;;;;;;5042120;28;20060;-77
2024/01/16 10:51:14;;;;;;;14.97;8.87;;;2.00;99.90;;;;;;5040007;28;20069;-77
2024/01/16 10:53:46;;;;;;;16.98;9.38;;;2.00;99.90;;;;;;5050608;28;20053;-77
2024/01/16 10:56:12;;;;;;;12.45;8.27;;;2.00;99.90;;;;;;5042372;28;20057;-77
2024/01/16 10:58:42;;;;;;;12.47;8.00;;;2.00;99.90;;;;;;5042403;28;20097;-77
2024/01/16 11:01:12;;;;;;;11.80;6.73;;;2.10;99.90;;;;;;5039627;28;20049;-76
2024/01/16 11:03:45;;;;;;;10.67;6.47;;;2.10;99.90;;;;;;5042872;28;20109;-77
2024/01/16 11:06:13;;;;;;;8.33;5.67;;;2.10;99.90;;;;;;5044589;28;20275;-77
2024/01/16 11:08:39;;;;;;;6.07;5.30;;;2.10;99.90;;;;;;5035932;28;20105;-77
2024/01/16 11:11:07;;;;;;;9.63;5.00;;;2.10;99.90;;;;;;5038651;28;20053;-77
2024/01/16 11:13:37;;;;;;;10.10;4.83;;;2.10;99.90;;;;;;5047921;28;20045;-76
2024/01/16 11:16:04;;;;;;;6.90;4.60;;;2.10;99.90;;;;;;5039738;28;20096;-75
2024/01/16 11:18:32;;;;;;;7.60;4.00;;;2.10;99.90;;;;;;5041155;28;20147;-76
2024/01/16 11:20:59;;;;;;;5.00;3.00;;;2.10;99.90;;;;;;5043267;28;20042;-76
2024/01/16 11:23:25;;;;;;;7.30;3.50;;;2.20;99.90;;;;;;5044116;28;20069;-77
2024/01/16 11:25:51;;;;;;;7.87;3.67;;;2.20;99.90;;;;;;5040054;28;20519;-76
2024/01/16 11:28:16;;;;;;;6.23;3.13;;;2.20;99.90;;;;;;5038977;28;20065;-77
2024/01/16 11:30:43;;;;;;;6.90;2.87;;;2.20;99.90;;;;;;5040976;28;20033;-76
2024/01/16 11:33:31;;;;;;;6.97;2.77;;;2.20;99.90;;;;;;5045578;28;20105;-76
2024/01/16 11:35:57;;;;;;;4.47;2.70;;;2.20;99.90;;;;;;5042854;28;20064;-80
2024/01/16 11:38:26;;;;;;;4.40;2.40;;;2.20;99.90;;;;;;5039129;28;20109;-76
2024/01/16 11:40:53;;;;;;;6.10;2.47;;;2.10;99.90;;;;;;5038052;28;20149;-80
2024/01/16 11:43:34;;;;;;;5.70;2.17;;;2.10;99.90;;;;;;5028674;28;20080;-80
2024/01/16 11:46:01;;;;;;;5.93;2.40;;;2.10;99.90;;;;;;5044267;28;20055;-79
2024/01/16 11:48:27;;;;;;;7.70;2.27;;;2.10;99.90;;;;;;5045429;28;20477;-80
2024/01/16 11:50:53;;;;;;;8.47;2.37;;;2.10;99.90;;;;;;5049799;28;20030;-80
2024/01/16 11:53:40;;;;;;;3.63;2.40;;;2.10;99.90;;;;;;5050091;28;20072;-79
2024/01/16 11:56:34;;;;;;;3.50;1.97;;;2.10;99.90;;;;;;5031174;28;20141;-82
2024/01/16 11:59:22;;;;;;;7.67;2.00;;;2.10;99.90;;;;;;5039477;28;20053;-81
2024/01/16 12:01:52;;;;;;;6.47;2.10;;;2.10;99.90;;;;;;5040213;28;20520;-81
2024/01/16 12:04:20;;;;;;;4.67;2.23;;;2.10;99.90;;;;;;5034825;28;20052;-81
2024/01/16 12:06:57;;;;;;;4.57;2.00;;;2.10;99.90;;;;;;5044871;28;20045;-81
2024/01/16 12:09:26;;;;;;;5.50;2.50;;;2.00;99.90;;;;;;5041003;28;20052;-81
2024/01/16 12:12:02;;;;;;;7.43;2.37;;;2.00;99.90;;;;;;5035636;28;20053;-81
2024/01/16 12:14:29;;;;;;;5.93;2.43;;;2.00;99.90;;;;;;5034025;28;20645;-81
2024/01/16 12:17:21;;;;;;;7.43;2.73;;;2.10;99.90;;;;;;5029273;28;20045;-77
2024/01/16 12:19:49;;;;;;;9.98;2.75;;;2.10;99.90;;;;;;5040053;28;20088;-81
2024/01/16 12:22:18;;;;;;;6.50;2.40;;;2.20;99.90;;;;;;5042448;28;20051;-81
2024/01/16 12:24:45;;;;;;;7.73;2.77;;;2.20;99.90;;;;;;5047425;28;20056;-80
2024/01/16 12:27:11;;;;;;;6.10;2.60;;;2.30;99.90;;;;;;5043974;28;20442;-81
2024/01/16 12:29:36;;;;;;;7.40;3.13;;;2.40;99.90;;;;;;5045146;28;20077;-81
2024/01/16 12:32:09;;;;;;;7.13;2.70;;;2.40;99.90;;;;;;5041992;28;20052;-81
2024/01/16 12:34:47;;;;;;;9.13;3.10;;;2.40;99.90;;;;;;5045452;28;20253;-81
2024/01/16 12:37:13;;;;;;;9.50;4.37;;;2.40;99.90;;;;;;5040751;28;20052;-81
2024/01/16 12:39:41;;;;;;;7.20;3.70;;;2.30;99.90;;;;;;5046002;28;20150;-81
2024/01/16 12:42:09;;;;;;;8.67;3.77;;;2.40;99.90;;;;;;5038316;28;20115;-81
2024/01/16 12:44:35;;;;;;;8.83;4.10;;;2.30;99.90;;;;;;5048643;28;20052;-81
2024/01/16 12:47:01;;;;;;;10.03;3.83;;;2.30;99.90;;;;;;5054437;28;20068;-81
2024/01/16 12:49:28;;;;;;;8.10;3.80;;;2.30;99.90;;;;;;5044057;28;20045;-80